Time;durP1;ratioP1;P1;durP2;ratioP2;P2;SDS_P1;SDS_P2;PMS_P1;PMS_P2;Temp;Humidity;BMP_temperature;BMP_pressure;BME280_temperature;BME280_humidity;BME280_pressure;Samples;Min_cycle;Max_cycle;Signal;HPM_P1;HPM_P2
2023/09/26 00:01:30;;;;;;;10.27;7.28;;;14.00;99.90;;;;;;5093927;28;20067;-77
2023/09/26 00:03:56;;;;;;;9.70;7.03;;;14.00;99.90;;;;;;5092963;28;20446;-77
2023/09/26 00:06:23;;;;;;;7.75;6.68;;;14.00;99.90;;;;;;5092967;28;20056;-77
2023/09/26 00:08:49;;;;;;;9.73;7.55;;;14.00;99.90;;;;;;5093007;28;20047;-77
2023/09/26 00:11:16;;;;;;;10.15;7.38;;;13.90;99.90;;;;;;5092765;28;20475;-77
2023/09/26 00:13:43;;;;;;;9.23;7.20;;;14.00;99.90;;;;;;5093979;28;20055;-77
2023/09/26 00:16:09;;;;;;;10.18;7.15;;;13.90;99.90;;;;;;5092560;28;20044;-77
2023/09/26 00:18:37;;;;;;;8.02;6.65;;;13.90;99.90;;;;;;5092345;28;20490;-77
2023/09/26 00:21:02;;;;;;;10.55;7.20;;;13.90;99.90;;;;;;5092460;28;20056;-77
2023/09/26 00:23:29;;;;;;;9.30;7.05;;;13.90;99.90;;;;;;5093962;28;20052;-78
2023/09/26 00:25:54;;;;;;;10.23;7.82;;;13.90;99.90;;;;;;5092548;28;20391;-77
2023/09/26 00:28:20;;;;;;;11.60;6.70;;;13.90;99.90;;;;;;5092672;28;20051;-77
2023/09/26 00:30:46;;;;;;;10.05;7.13;;;13.90;99.90;;;;;;5092671;28;20483;-77
2023/09/26 00:33:12;;;;;;;9.32;7.78;;;13.80;99.90;;;;;;5092339;28;20052;-78
2023/09/26 00:35:37;;;;;;;10.98;7.68;;;13.80;99.90;;;;;;5093689;28;20032;-77
2023/09/26 00:38:03;;;;;;;9.82;7.90;;;13.80;99.90;;;;;;5092506;28;20469;-77
2023/09/26 00:40:29;;;;;;;12.35;8.20;;;13.80;99.90;;;;;;5092608;28;20067;-77
2023/09/26 00:42:58;;;;;;;12.18;8.50;;;13.80;99.90;;;;;;5092067;28;20502;-77
2023/09/26 00:45:24;;;;;;;12.23;8.90;;;13.90;99.90;;;;;;5092210;28;20044;-77
2023/09/26 00:47:50;;;;;;;11.02;8.65;;;13.90;99.90;;;;;;5094347;28;20126;-77
2023/09/26 00:50:16;;;;;;;9.50;7.82;;;13.90;99.90;;;;;;5096428;28;20123;-77
2023/09/26 00:52:48;;;;;;;12.52;8.45;;;13.90;99.90;;;;;;5096281;28;20071;-77
2023/09/26 00:55:16;;;;;;;10.65;9.05;;;13.90;99.90;;;;;;5096658;28;20044;-77
2023/09/26 00:57:43;;;;;;;11.82;8.95;;;13.90;99.90;;;;;;5096385;28;20185;-77
2023/09/26 01:00:12;;;;;;;11.40;8.80;;;13.90;99.90;;;;;;5096159;28;20116;-77
2023/09/26 01:02:39;;;;;;;17.48;10.00;;;13.90;99.90;;;;;;5096070;28;20438;-77
2023/09/26 01:05:06;;;;;;;11.15;9.52;;;13.90;99.90;;;;;;5096169;28;20133;-77
2023/09/26 01:07:33;;;;;;;11.52;9.25;;;13.90;99.90;;;;;;5096459;28;20064;-77
2023/09/26 01:10:00;;;;;;;11.88;9.23;;;13.90;99.90;;;;;;5096194;28;20052;-78
2023/09/26 01:12:29;;;;;;;11.93;9.95;;;13.90;99.90;;;;;;5097105;28;20488;-77
2023/09/26 01:14:55;;;;;;;13.25;10.23;;;13.80;99.90;;;;;;5097349;28;20051;-77
2023/09/26 01:17:21;;;;;;;13.02;9.23;;;13.90;99.90;;;;;;5097139;28;20056;-77
2023/09/26 01:19:47;;;;;;;13.82;10.07;;;13.90;99.90;;;;;;5095749;28;20498;-77
2023/09/26 01:22:16;;;;;;;11.57;8.82;;;13.90;99.90;;;;;;5095493;28;20126;-77
2023/09/26 01:24:43;;;;;;;11.73;8.60;;;13.80;99.90;;;;;;5095609;28;20084;-77
2023/09/26 01:27:09;;;;;;;11.38;9.75;;;13.80;99.90;;;;;;5095678;28;20442;-77
2023/09/26 01:29:35;;;;;;;11.55;9.05;;;13.80;99.90;;;;;;5097041;28;20047;-77
2023/09/26 01:32:01;;;;;;;12.73;9.20;;;13.80;99.90;;;;;;5095947;28;20044;-77
2023/09/26 01:34:26;;;;;;;12.30;9.50;;;13.80;99.90;;;;;;5095694;28;20040;-77
2023/09/26 01:36:52;;;;;;;13.25;9.93;;;13.70;99.90;;;;;;5095516;28;20135;-77
2023/09/26 01:39:18;;;;;;;12.35;10.65;;;13.70;99.90;;;;;;5095624;28;20502;-77
2023/09/26 01:41:43;;;;;;;14.52;11.45;;;13.70;99.90;;;;;;5095310;28;20051;-77
2023/09/26 01:44:09;;;;;;;12.50;10.75;;;13.70;99.90;;;;;;5095650;28;20055;-77
2023/09/26 01:46:34;;;;;;;13.65;10.40;;;13.70;99.90;;;;;;5095688;28;20059;-77
2023/09/26 01:49:00;;;;;;;11.23;9.95;;;13.70;99.90;;;;;;5095657;28;20520;-77
2023/09/26 01:51:26;;;;;;;14.55;10.60;;;13.70;99.90;;;;;;5095257;28;20036;-77
2023/09/26 01:53:52;;;;;;;12.90;10.45;;;13.70;99.90;;;;;;5096553;28;20050;-77
2023/09/26 01:56:18;;;;;;;12.95;10.48;;;13.70;99.90;;;;;;5096307;28;20067;-77
2023/09/26 01:58:43;;;;;;;14.00;10.15;;;13.60;99.90;;;;;;5094907;28;20044;-77
2023/09/26 02:01:09;;;;;;;10.30;8.80;;;13.60;99.90;;;;;;5095316;28;20055;-77
2023/09/26 02:03:34;;;;;;;12.13;10.27;;;13.60;99.90;;;;;;5096429;28;20036;-77
2023/09/26 02:06:00;;;;;;;13.75;10.20;;;13.50;99.90;;;;;;5095301;28;20106;-77
2023/09/26 02:08:26;;;;;;;13.60;10.30;;;13.50;99.90;;;;;;5095528;28;20043;-77
2023/09/26 02:10:52;;;;;;;11.77;10.52;;;13.50;99.90;;;;;;5094792;28;20093;-77
2023/09/26 02:13:17;;;;;;;11.45;10.02;;;13.50;99.90;;;;;;5095084;28;20127;-77
2023/09/26 02:15:43;;;;;;;13.60;10.35;;;13.40;99.90;;;;;;5094852;28;20048;-77
2023/09/26 02:18:10;;;;;;;12.23;9.98;;;13.40;99.90;;;;;;5094550;28;20131;-77
2023/09/26 02:20:36;;;;;;;12.40;10.35;;;13.40;99.90;;;;;;5094761;28;20554;-77
2023/09/26 02:23:02;;;;;;;19.88;12.15;;;13.30;99.90;;;;;;5094412;28;20130;-77
2023/09/26 02:25:28;;;;;;;13.30;10.77;;;13.40;99.90;;;;;;5094560;28;20048;-77
2023/09/26 02:27:54;;;;;;;14.82;10.98;;;13.30;99.90;;;;;;5095902;28;20089;-77
2023/09/26 02:30:24;;;;;;;11.55;10.35;;;13.30;99.90;;;;;;5094875;28;20055;-77
2023/09/26 02:32:50;;;;;;;15.23;10.80;;;13.30;99.90;;;;;;5094556;28;20044;-77
2023/09/26 02:35:19;;;;;;;15.60;11.20;;;13.30;99.90;;;;;;5095769;28;20040;-77
2023/09/26 02:37:45;;;;;;;15.98;11.32;;;13.30;99.90;;;;;;5094235;28;20046;-77
2023/09/26 02:40:12;;;;;;;13.48;11.43;;;13.30;99.90;;;;;;5095727;28;20047;-77
2023/09/26 02:42:39;;;;;;;14.55;12.20;;;13.30;99.90;;;;;;5094193;28;20048;-77
2023/09/26 02:45:05;;;;;;;15.95;12.38;;;13.20;99.90;;;;;;5094278;28;20044;-77
2023/09/26 02:47:31;;;;;;;15.13;11.73;;;13.20;99.90;;;;;;5095508;28;20097;-77
2023/09/26 02:49:56;;;;;;;13.48;12.07;;;13.20;99.90;;;;;;5093956;28;20048;-77
2023/09/26 02:52:24;;;;;;;14.68;11.57;;;13.20;99.90;;;;;;5094040;28;20075;-77
2023/09/26 02:54:50;;;;;;;14.15;12.43;;;13.20;99.90;;;;;;5095362;28;20043;-77
2023/09/26 02:57:15;;;;;;;16.80;12.45;;;13.20;99.90;;;;;;5095516;28;20372;-77
2023/09/26 02:59:41;;;;;;;14.90;12.75;;;13.20;99.90;;;;;;5093999;28;20119;-77
2023/09/26 03:02:07;;;;;;;17.50;12.70;;;13.20;99.90;;;;;;5093812;28;20131;-77
2023/09/26 03:04:36;;;;;;;19.52;13.45;;;13.20;99.90;;;;;;5094216;28;20146;-77
2023/09/26 03:07:01;;;;;;;18.90;13.05;;;13.20;99.90;;;;;;5094948;28;20074;-77
2023/09/26 03:09:27;;;;;;;15.35;13.02;;;13.20;99.90;;;;;;5093239;28;20071;-77
2023/09/26 03:11:53;;;;;;;17.13;13.07;;;13.20;99.90;;;;;;5093806;28;20119;-77
2023/09/26 03:14:20;;;;;;;15.60;13.63;;;13.20;99.90;;;;;;5093685;28;20500;-77
2023/09/26 03:16:46;;;;;;;16.80;14.35;;;13.20;99.90;;;;;;5093639;28;20488;-77
2023/09/26 03:19:12;;;;;;;15.43;13.82;;;13.20;99.90;;;;;;5093312;28;20051;-77
2023/09/26 03:21:38;;;;;;;16.67;14.10;;;13.20;99.90;;;;;;5093353;28;20083;-77
2023/09/26 03:24:04;;;;;;;18.92;13.45;;;13.10;99.90;;;;;;5093438;28;20074;-78
2023/09/26 03:26:30;;;;;;;15.43;13.63;;;13.10;99.90;;;;;;5093419;28;20417;-77
2023/09/26 03:28:55;;;;;;;15.73;14.02;;;13.10;99.90;;;;;;5093685;28;20186;-77
2023/09/26 03:31:21;;;;;;;17.45;13.25;;;13.10;99.90;;;;;;5093449;28;20036;-77
2023/09/26 03:33:49;;;;;;;19.27;14.65;;;13.10;99.90;;;;;;5093359;28;20052;-77
2023/09/26 03:36:14;;;;;;;15.90;13.45;;;13.10;99.90;;;;;;5093205;28;20501;-77
2023/09/26 03:38:40;;;;;;;17.85;13.57;;;13.10;99.90;;;;;;5093057;28;20043;-77
2023/09/26 03:41:06;;;;;;;17.33;14.77;;;13.10;99.90;;;;;;5092951;28;20040;-77
2023/09/26 03:43:32;;;;;;;19.75;15.18;;;13.10;99.90;;;;;;5093392;28;20672;-78
2023/09/26 03:46:06;;;;;;;17.75;14.07;;;13.10;99.90;;;;;;5094335;28;20047;-77
2023/09/26 03:48:32;;;;;;;18.73;15.25;;;13.10;99.90;;;;;;5094214;28;20067;-77
2023/09/26 03:51:09;;;;;;;17.10;14.88;;;13.10;99.90;;;;;;5092803;28;20040;-77
2023/09/26 03:53:35;;;;;;;20.15;14.98;;;13.10;99.90;;;;;;5092912;28;20548;-80
2023/09/26 03:56:01;;;;;;;18.50;15.95;;;13.10;99.90;;;;;;5092997;28;20048;-77
2023/09/26 03:58:27;;;;;;;17.50;14.27;;;13.10;99.90;;;;;;5094135;28;20096;-77
2023/09/26 04:00:52;;;;;;;18.08;15.70;;;13.00;99.90;;;;;;5094215;28;20043;-77
2023/09/26 04:03:19;;;;;;;17.85;14.93;;;13.00;99.90;;;;;;5092672;28;20048;-77
2023/09/26 04:05:48;;;;;;;17.10;14.80;;;13.00;99.90;;;;;;5092744;28;20071;-77
2023/09/26 04:08:16;;;;;;;18.33;14.77;;;13.00;99.90;;;;;;5092562;28;20048;-77
2023/09/26 04:10:42;;;;;;;20.27;16.60;;;13.00;99.90;;;;;;5093014;28;20056;-77
2023/09/26 04:13:08;;;;;;;17.58;14.65;;;13.00;99.90;;;;;;5092747;28;20411;-77
2023/09/26 04:15:37;;;;;;;17.13;14.38;;;13.00;99.90;;;;;;5092500;28;20093;-77
2023/09/26 04:18:05;;;;;;;21.42;15.70;;;13.00;99.90;;;;;;5092476;28;20059;-77
2023/09/26 04:20:30;;;;;;;19.48;15.90;;;13.10;99.90;;;;;;5092567;28;20047;-77
2023/09/26 04:22:56;;;;;;;19.55;16.30;;;13.10;99.90;;;;;;5091462;28;20059;-77
2023/09/26 04:25:22;;;;;;;20.63;15.73;;;13.10;99.90;;;;;;5092621;28;20102;-77
2023/09/26 04:27:47;;;;;;;20.05;16.63;;;13.10;99.90;;;;;;5092811;28;20052;-77
2023/09/26 04:30:15;;;;;;;18.85;15.90;;;13.10;99.90;;;;;;5093894;28;20399;-77
2023/09/26 04:32:41;;;;;;;20.38;15.93;;;13.10;99.90;;;;;;5092695;28;20052;-77
2023/09/26 04:35:07;;;;;;;20.20;16.77;;;13.20;99.90;;;;;;5092720;28;20044;-77
2023/09/26 04:37:35;;;;;;;19.88;16.13;;;13.20;99.90;;;;;;5092678;28;20108;-77
2023/09/26 04:40:00;;;;;;;23.92;16.45;;;13.10;99.90;;;;;;5092658;28;20531;-77
2023/09/26 04:42:26;;;;;;;19.80;16.48;;;13.10;99.90;;;;;;5092500;28;20136;-77
2023/09/26 04:44:52;;;;;;;18.63;16.30;;;13.10;99.90;;;;;;5092597;28;20046;-77
2023/09/26 04:47:17;;;;;;;21.23;15.75;;;13.10;99.90;;;;;;5092330;28;20461;-77
2023/09/26 04:49:43;;;;;;;22.60;16.90;;;13.10;99.90;;;;;;5092608;28;20044;-77
2023/09/26 04:52:09;;;;;;;21.00;17.02;;;13.10;99.90;;;;;;5092489;28;20044;-77
2023/09/26 04:54:35;;;;;;;18.30;15.55;;;13.10;99.90;;;;;;5092604;28;20494;-77
2023/09/26 04:57:00;;;;;;;18.00;15.27;;;13.10;99.90;;;;;;5092267;28;20048;-76
2023/09/26 04:59:27;;;;;;;20.40;17.33;;;13.10;99.90;;;;;;5092092;28;20113;-77
2023/09/26 05:01:53;;;;;;;20.45;16.98;;;13.10;99.90;;;;;;5093449;28;20048;-77
2023/09/26 05:04:18;;;;;;;22.20;17.75;;;13.10;99.90;;;;;;5092176;28;20040;-77
2023/09/26 05:06:44;;;;;;;18.38;16.00;;;13.10;99.90;;;;;;5092422;28;20139;-77
2023/09/26 05:09:10;;;;;;;17.50;15.63;;;13.10;99.90;;;;;;5092190;28;20036;-77
2023/09/26 05:11:36;;;;;;;20.65;17.77;;;13.00;99.90;;;;;;5092126;28;20517;-77
2023/09/26 05:14:01;;;;;;;23.27;17.15;;;13.00;99.90;;;;;;5093175;28;20541;-79
2023/09/26 05:16:27;;;;;;;21.70;17.20;;;13.10;99.90;;;;;;5091762;28;20127;-79
2023/09/26 05:18:54;;;;;;;19.40;17.00;;;13.10;99.90;;;;;;5090581;28;20059;-77
2023/09/26 05:21:21;;;;;;;19.17;17.10;;;13.00;99.90;;;;;;5091991;28;20048;-78
2023/09/26 05:23:47;;;;;;;18.60;16.45;;;13.00;99.90;;;;;;5093238;28;20048;-79
2023/09/26 05:26:13;;;;;;;21.33;16.70;;;13.00;99.90;;;;;;5092222;28;20043;-78
2023/09/26 05:28:39;;;;;;;18.35;16.38;;;13.00;99.90;;;;;;5091651;28;20047;-78
2023/09/26 05:31:05;;;;;;;20.17;16.63;;;13.00;99.90;;;;;;5092000;28;20074;-77
2023/09/26 05:33:31;;;;;;;21.17;17.92;;;13.10;99.90;;;;;;5093513;28;20080;-78
2023/09/26 05:35:57;;;;;;;23.65;17.80;;;13.10;99.90;;;;;;5082049;28;20454;-77
2023/09/26 05:38:25;;;;;;;19.90;17.40;;;13.10;99.90;;;;;;5075247;28;20483;-78
2023/09/26 05:40:51;;;;;;;19.17;15.70;;;13.10;99.90;;;;;;5075300;28;20462;-77
2023/09/26 05:43:17;;;;;;;22.13;18.10;;;13.10;99.90;;;;;;5074935;28;20041;-78
2023/09/26 05:45:42;;;;;;;19.75;17.33;;;13.00;99.90;;;;;;5074864;28;20113;-78
2023/09/26 05:48:08;;;;;;;23.05;17.95;;;13.10;99.90;;;;;;5076388;28;20044;-78
2023/09/26 05:50:34;;;;;;;23.45;17.58;;;13.10;99.90;;;;;;5075059;28;20541;-78
2023/09/26 05:53:00;;;;;;;20.05;16.17;;;13.10;99.90;;;;;;5074931;28;20374;-78
2023/09/26 05:55:26;;;;;;;19.33;17.00;;;13.10;99.90;;;;;;5074784;28;20045;-78
2023/09/26 05:57:52;;;;;;;19.35;16.30;;;13.10;99.90;;;;;;5074714;28;20201;-78
2023/09/26 06:00:18;;;;;;;20.88;18.17;;;13.10;99.90;;;;;;5076124;28;20044;-78
2023/09/26 06:02:44;;;;;;;19.55;16.90;;;13.10;99.90;;;;;;5074478;28;20063;-78
2023/09/26 06:05:13;;;;;;;22.30;17.60;;;13.10;99.90;;;;;;5075048;28;20479;-77
2023/09/26 06:07:41;;;;;;;21.88;17.58;;;13.10;99.90;;;;;;5074977;28;20048;-78
2023/09/26 06:10:11;;;;;;;21.33;17.02;;;13.10;99.90;;;;;;5074722;28;20049;-78
2023/09/26 06:12:40;;;;;;;21.17;16.85;;;13.20;99.90;;;;;;5074468;28;20121;-78
2023/09/26 06:15:06;;;;;;;18.40;16.45;;;13.20;99.90;;;;;;5075998;28;20048;-78
2023/09/26 06:17:33;;;;;;;18.67;15.85;;;13.20;99.90;;;;;;5075659;28;20093;-78
2023/09/26 06:19:58;;;;;;;20.73;17.60;;;13.30;99.90;;;;;;5074783;28;20088;-78
2023/09/26 06:22:24;;;;;;;20.05;17.45;;;13.40;99.90;;;;;;5074277;28;20525;-77
2023/09/26 06:24:53;;;;;;;20.95;17.27;;;13.40;99.90;;;;;;5074230;28;20454;-78
2023/09/26 06:27:19;;;;;;;22.08;17.23;;;13.40;99.90;;;;;;5074038;28;20495;-76
2023/09/26 06:29:44;;;;;;;19.58;16.63;;;13.40;99.90;;;;;;5085477;28;20089;-76
2023/09/26 06:32:10;;;;;;;22.00;16.73;;;13.40;99.90;;;;;;5073897;28;20048;-75
2023/09/26 06:34:39;;;;;;;19.08;16.85;;;13.40;99.90;;;;;;5074950;28;20098;-77
2023/09/26 06:37:05;;;;;;;25.42;16.67;;;13.50;99.90;;;;;;5073790;28;20092;-77
2023/09/26 06:39:30;;;;;;;22.92;17.13;;;13.50;99.90;;;;;;5073844;28;20078;-78
2023/09/26 06:41:56;;;;;;;20.00;16.75;;;13.50;99.90;;;;;;5073676;28;20040;-78
2023/09/26 06:44:21;;;;;;;21.50;16.88;;;13.60;99.90;;;;;;5073304;28;20132;-77
2023/09/26 06:46:48;;;;;;;21.38;15.48;;;13.60;99.90;;;;;;5073659;28;20036;-77
2023/09/26 06:49:13;;;;;;;19.35;15.65;;;13.70;99.90;;;;;;5074808;28;20101;-77
2023/09/26 06:51:39;;;;;;;21.25;16.05;;;13.70;99.90;;;;;;5073795;28;20060;-77
2023/09/26 06:54:05;;;;;;;20.15;16.23;;;13.70;99.90;;;;;;5073433;28;20555;-77
2023/09/26 06:56:30;;;;;;;27.35;16.02;;;13.80;99.90;;;;;;5074757;28;20051;-77
2023/09/26 06:58:56;;;;;;;23.02;16.55;;;13.80;99.90;;;;;;5073659;28;20186;-77
2023/09/26 07:01:21;;;;;;;18.95;15.02;;;13.90;99.90;;;;;;5074731;28;20190;-77
2023/09/26 07:03:48;;;;;;;22.40;16.05;;;13.90;99.90;;;;;;5074506;28;20101;-77
2023/09/26 07:06:15;;;;;;;21.60;14.38;;;14.00;99.90;;;;;;5074374;28;20476;-77
2023/09/26 07:08:43;;;;;;;20.33;14.20;;;14.10;99.90;;;;;;5073219;28;20048;-76
2023/09/26 07:11:09;;;;;;;16.63;13.93;;;14.10;99.90;;;;;;5077295;28;20047;-77
2023/09/26 07:13:35;;;;;;;21.58;15.85;;;14.20;99.90;;;;;;5093132;28;20399;-77
2023/09/26 07:16:08;;;;;;;16.45;13.68;;;14.20;99.90;;;;;;5093208;28;20488;-77
2023/09/26 07:18:36;;;;;;;17.52;14.30;;;14.30;99.90;;;;;;5094318;28;20059;-78
2023/09/26 07:21:07;;;;;;;21.10;14.23;;;14.30;99.90;;;;;;5093098;28;20048;-76
2023/09/26 07:23:37;;;;;;;16.65;13.52;;;14.40;99.90;;;;;;5093495;28;20063;-76
2023/09/26 07:26:12;;;;;;;19.10;13.75;;;14.40;99.90;;;;;;5093285;28;20059;-76
2023/09/26 07:28:38;;;;;;;16.75;13.82;;;14.40;99.90;;;;;;5093312;28;20043;-76
2023/09/26 07:31:04;;;;;;;18.35;13.65;;;14.50;99.90;;;;;;5093079;28;20040;-77
2023/09/26 07:33:30;;;;;;;17.25;13.68;;;14.50;99.90;;;;;;5093016;28;20471;-77
2023/09/26 07:35:56;;;;;;;15.82;13.88;;;14.50;99.90;;;;;;5094166;28;20044;-77
2023/09/26 07:38:22;;;;;;;17.48;12.75;;;14.60;99.90;;;;;;5093270;28;20054;-76
2023/09/26 07:40:50;;;;;;;18.00;14.07;;;14.60;99.90;;;;;;5092905;28;20048;-77
2023/09/26 07:43:19;;;;;;;19.85;14.73;;;14.60;99.90;;;;;;5092864;28;20051;-77
2023/09/26 07:45:45;;;;;;;16.08;13.55;;;14.70;99.90;;;;;;5092996;28;20044;-77
2023/09/26 07:48:10;;;;;;;19.00;13.52;;;14.80;99.90;;;;;;5093019;28;20055;-77
2023/09/26 07:50:36;;;;;;;17.23;14.02;;;14.80;99.90;;;;;;5092855;28;20490;-77
2023/09/26 07:53:02;;;;;;;17.02;13.23;;;14.90;99.90;;;;;;5092975;28;20549;-76
2023/09/26 07:55:28;;;;;;;17.13;13.07;;;14.90;99.90;;;;;;5092867;28;20044;-76
2023/09/26 07:57:54;;;;;;;16.92;14.32;;;15.00;99.90;;;;;;5085911;28;20099;-76
2023/09/26 08:00:20;;;;;;;18.13;14.90;;;15.10;99.90;;;;;;5079326;28;20502;-76
2023/09/26 08:02:45;;;;;;;18.80;13.60;;;15.10;99.90;;;;;;5074061;28;20131;-76
2023/09/26 08:05:11;;;;;;;19.15;13.60;;;15.20;99.90;;;;;;5072031;28;20040;-77
2023/09/26 08:07:38;;;;;;;18.33;14.27;;;15.20;99.90;;;;;;5072865;28;20112;-77
2023/09/26 08:10:04;;;;;;;18.65;13.95;;;15.20;99.90;;;;;;5061294;28;20072;-77
2023/09/26 08:12:30;;;;;;;17.55;13.93;;;15.30;99.90;;;;;;5083060;28;20052;-78
2023/09/26 08:14:57;;;;;;;18.85;14.30;;;15.30;99.90;;;;;;5071947;28;20048;-77
2023/09/26 08:17:23;;;;;;;15.43;12.75;;;15.40;99.90;;;;;;5074065;28;20097;-77
2023/09/26 08:19:51;;;;;;;15.95;12.27;;;15.40;99.90;;;;;;5072013;28;20044;-76
2023/09/26 08:22:17;;;;;;;17.05;13.00;;;15.40;99.90;;;;;;5071951;28;20044;-77
2023/09/26 08:24:42;;;;;;;15.32;12.73;;;15.40;99.90;;;;;;5072305;28;20645;-79
2023/09/26 08:27:08;;;;;;;15.20;12.90;;;15.40;99.90;;;;;;5071870;28;20395;-79
2023/09/26 08:29:34;;;;;;;15.30;11.35;;;15.50;99.90;;;;;;5072002;28;20147;-79
2023/09/26 08:31:59;;;;;;;16.10;12.45;;;15.50;99.90;;;;;;5080862;28;20041;-77
2023/09/26 08:34:25;;;;;;;16.00;12.65;;;15.50;99.90;;;;;;5081685;28;20044;-77
2023/09/26 08:36:52;;;;;;;15.30;12.93;;;15.60;99.90;;;;;;5072115;28;20134;-78
2023/09/26 08:39:18;;;;;;;17.77;11.63;;;15.70;99.90;;;;;;5073043;28;20159;-77
2023/09/26 08:41:47;;;;;;;16.83;12.80;;;15.80;99.90;;;;;;5071945;28;20080;-78
2023/09/26 08:44:13;;;;;;;16.10;11.80;;;15.90;99.90;;;;;;5071994;28;20053;-78
2023/09/26 08:46:40;;;;;;;17.00;12.45;;;16.00;99.90;;;;;;5070930;28;20046;-77
2023/09/26 08:49:06;;;;;;;18.85;12.10;;;16.10;99.90;;;;;;5072923;28;20465;-77
2023/09/26 08:51:38;;;;;;;17.52;12.50;;;16.20;99.90;;;;;;5072999;28;20040;-77
2023/09/26 08:54:04;;;;;;;17.55;12.88;;;16.30;99.90;;;;;;5071748;28;20407;-77
2023/09/26 08:56:33;;;;;;;16.33;11.35;;;16.30;99.90;;;;;;5071818;28;20037;-78
2023/09/26 08:59:01;;;;;;;14.90;10.85;;;16.40;99.90;;;;;;5073055;28;20072;-77
2023/09/26 09:01:27;;;;;;;14.75;11.40;;;16.50;99.90;;;;;;5071908;28;20043;-78
2023/09/26 09:03:52;;;;;;;16.88;11.98;;;16.60;99.90;;;;;;5071890;28;20161;-77
2023/09/26 09:06:18;;;;;;;14.15;10.63;;;16.70;99.90;;;;;;5072803;28;20493;-80
2023/09/26 09:08:44;;;;;;;15.10;9.68;;;16.80;99.90;;;;;;5079502;28;20036;-77
2023/09/26 09:11:11;;;;;;;14.00;10.13;;;16.90;99.90;;;;;;5095525;28;20044;-77
2023/09/26 09:13:38;;;;;;;14.52;9.80;;;16.90;99.90;;;;;;5078952;28;20044;-76
2023/09/26 09:16:09;;;;;;;13.75;9.88;;;17.00;99.90;;;;;;5075240;28;20484;-76
2023/09/26 09:18:44;;;;;;;13.43;9.57;;;17.10;99.90;;;;;;5075000;28;20182;-76
2023/09/26 09:21:22;;;;;;;14.20;10.20;;;17.10;99.90;;;;;;5074948;28;20123;-77
2023/09/26 09:23:50;;;;;;;13.63;10.20;;;17.10;99.90;;;;;;5076315;28;20063;-76
2023/09/26 09:26:15;;;;;;;12.82;9.63;;;17.10;99.90;;;;;;5095337;28;20044;-77
2023/09/26 09:28:41;;;;;;;13.70;9.52;;;17.10;99.90;;;;;;5096769;28;20047;-76
2023/09/26 09:31:07;;;;;;;14.65;9.65;;;17.10;99.90;;;;;;5094998;28;20040;-77
2023/09/26 09:33:32;;;;;;;15.05;9.35;;;17.10;99.90;;;;;;5095207;28;20181;-77
2023/09/26 09:35:58;;;;;;;14.23;9.27;;;17.10;99.90;;;;;;5095033;28;20048;-76
2023/09/26 09:38:26;;;;;;;13.85;9.25;;;17.20;99.90;;;;;;5095175;28;20394;-76
2023/09/26 09:40:52;;;;;;;11.65;9.00;;;17.10;99.90;;;;;;5094836;28;20047;-76
2023/09/26 09:43:18;;;;;;;14.65;9.20;;;17.20;99.90;;;;;;5095958;28;20074;-76
2023/09/26 09:45:47;;;;;;;14.80;10.07;;;17.30;99.90;;;;;;5094771;28;20522;-77
2023/09/26 09:48:14;;;;;;;13.85;9.57;;;17.30;99.90;;;;;;5095874;28;20153;-79
2023/09/26 09:50:41;;;;;;;14.80;10.18;;;17.30;99.90;;;;;;5081058;28;20044;-76
2023/09/26 09:53:12;;;;;;;11.75;9.82;;;17.40;99.90;;;;;;5078669;28;20487;-75
2023/09/26 09:55:41;;;;;;;14.85;9.82;;;17.40;99.90;;;;;;5088223;28;20048;-76
2023/09/26 09:58:09;;;;;;;13.70;9.57;;;17.40;99.90;;;;;;5092530;28;20040;-76
2023/09/26 10:00:40;;;;;;;14.80;10.93;;;17.40;99.90;;;;;;5074948;28;20055;-76
2023/09/26 10:03:06;;;;;;;15.65;10.98;;;17.40;99.90;;;;;;5079910;28;20047;-76
2023/09/26 10:05:34;;;;;;;15.85;10.32;;;17.50;99.90;;;;;;5094373;28;20040;-77
2023/09/26 10:08:02;;;;;;;13.88;9.63;;;17.50;99.90;;;;;;5094472;28;20126;-77
2023/09/26 10:10:28;;;;;;;13.23;10.23;;;17.50;99.90;;;;;;5094442;28;20090;-77
2023/09/26 10:12:54;;;;;;;15.95;10.95;;;17.50;99.90;;;;;;5096030;28;20044;-77
2023/09/26 10:15:20;;;;;;;16.48;9.93;;;17.50;99.90;;;;;;5096158;28;20051;-77
2023/09/26 10:17:51;;;;;;;16.30;11.27;;;17.50;99.90;;;;;;5093448;28;20047;-77
2023/09/26 10:20:26;;;;;;;15.80;10.90;;;17.50;99.90;;;;;;5094341;28;20106;-75
2023/09/26 10:23:09;;;;;;;13.90;10.05;;;17.60;99.90;;;;;;5095633;28;20482;-77
2023/09/26 10:25:36;;;;;;;16.30;10.10;;;17.60;99.90;;;;;;5094493;28;20498;-75
2023/09/26 10:28:04;;;;;;;15.40;10.93;;;17.60;99.90;;;;;;5094200;28;20044;-75
2023/09/26 10:30:47;;;;;;;13.60;10.48;;;17.60;99.90;;;;;;5094444;28;20113;-76
2023/09/26 10:33:13;;;;;;;13.65;10.07;;;17.60;99.90;;;;;;5095650;28;20031;-74
2023/09/26 10:35:43;;;;;;;14.27;10.40;;;17.70;99.90;;;;;;5095361;28;20062;-74
2023/09/26 10:38:23;;;;;;;19.58;10.80;;;17.80;99.90;;;;;;5095068;28;20079;-74
2023/09/26 10:40:48;;;;;;;12.60;8.85;;;17.80;99.90;;;;;;5094054;28;20039;-74
2023/09/26 10:43:17;;;;;;;14.85;10.25;;;17.90;99.90;;;;;;5093834;28;20097;-74
2023/09/26 10:45:46;;;;;;;12.90;9.68;;;18.00;99.90;;;;;;5093907;28;20396;-74
2023/09/26 10:48:19;;;;;;;12.77;9.82;;;18.00;99.90;;;;;;5093774;28;20044;-74
2023/09/26 10:50:45;;;;;;;13.82;10.20;;;18.00;99.90;;;;;;5093980;28;20059;-76
2023/09/26 10:53:11;;;;;;;13.43;9.65;;;18.00;99.90;;;;;;5093668;28;20040;-75
2023/09/26 10:55:37;;;;;;;13.80;8.90;;;18.00;99.90;;;;;;5093777;28;20093;-76
2023/09/26 10:58:03;;;;;;;13.65;9.27;;;18.10;99.90;;;;;;5093620;28;20169;-75
2023/09/26 11:00:28;;;;;;;12.82;8.90;;;18.20;99.90;;;;;;5093593;28;20130;-76
2023/09/26 11:02:54;;;;;;;12.98;8.50;;;18.20;99.90;;;;;;5093684;28;20137;-75
2023/09/26 11:05:20;;;;;;;11.68;8.70;;;18.30;99.90;;;;;;5093747;28;20491;-76
2023/09/26 11:07:46;;;;;;;10.75;8.00;;;18.30;99.90;;;;;;5093318;28;20048;-76
2023/09/26 11:10:14;;;;;;;10.98;7.57;;;18.40;99.90;;;;;;5093479;28;20499;-76
2023/09/26 11:12:40;;;;;;;9.35;7.38;;;18.50;99.90;;;;;;5093643;28;20059;-76
2023/09/26 11:15:09;;;;;;;11.98;8.75;;;18.50;99.90;;;;;;5093356;28;20036;-77
2023/09/26 11:17:37;;;;;;;11.38;7.95;;;18.50;99.90;;;;;;5093299;28;20078;-75
2023/09/26 11:20:07;;;;;;;13.90;7.90;;;18.60;99.90;;;;;;5092264;28;20044;-75
2023/09/26 11:22:51;;;;;;;10.52;6.88;;;18.60;99.90;;;;;;5093146;28;20043;-74
2023/09/26 11:25:17;;;;;;;12.50;7.70;;;18.70;99.90;;;;;;5093363;28;20503;-75
2023/09/26 11:27:47;;;;;;;11.40;7.72;;;18.70;99.90;;;;;;5093303;28;20513;-77
2023/09/26 11:30:17;;;;;;;11.38;8.25;;;18.80;99.90;;;;;;5093311;28;20059;-75
2023/09/26 11:32:46;;;;;;;13.65;7.63;;;19.00;99.90;;;;;;5093855;28;20046;-75
2023/09/26 11:35:14;;;;;;;10.55;7.82;;;19.10;99.90;;;;;;5094151;28;20082;-76
2023/09/26 11:37:39;;;;;;;11.15;6.97;;;19.30;99.90;;;;;;5094291;28;20047;-77
2023/09/26 11:40:19;;;;;;;11.77;7.20;;;19.40;99.90;;;;;;5075722;28;20047;-76
2023/09/26 11:42:46;;;;;;;12.35;7.30;;;19.60;99.90;;;;;;5072549;28;20547;-76
2023/09/26 11:45:25;;;;;;;11.45;6.88;;;19.70;99.90;;;;;;5072660;28;20040;-76
2023/09/26 11:47:52;;;;;;;9.75;6.68;;;19.90;99.90;;;;;;5073786;28;20403;-75
2023/09/26 11:50:19;;;;;;;10.82;6.53;;;19.80;99.90;;;;;;5073747;28;20045;-76
2023/09/26 11:52:45;;;;;;;13.65;7.82;;;19.80;99.90;;;;;;5072756;28;20071;-76
2023/09/26 11:55:17;;;;;;;10.98;6.43;;;19.80;99.90;;;;;;5072413;28;20414;-76
2023/09/26 11:57:45;;;;;;;9.80;6.50;;;19.90;99.90;;;;;;5072295;28;20567;-77
2023/09/26 12:00:16;;;;;;;13.18;6.80;;;20.10;99.90;;;;;;5072591;28;20044;-76
2023/09/26 12:02:43;;;;;;;11.65;6.40;;;20.20;99.90;;;;;;5073765;28;20110;-76
2023/09/26 12:05:11;;;;;;;9.68;5.90;;;20.20;99.90;;;;;;5072132;28;20054;-76
2023/09/26 12:07:41;;;;;;;9.40;5.78;;;20.30;99.90;;;;;;5072488;28;20044;-76
2023/09/26 12:10:08;;;;;;;11.60;7.03;;;20.20;99.90;;;;;;5072110;28;20082;-76
2023/09/26 12:12:33;;;;;;;10.70;6.60;;;20.30;99.90;;;;;;5072391;28;20040;-76
2023/09/26 12:15:20;;;;;;;11.13;6.20;;;20.30;99.90;;;;;;5073573;28;20154;-77
2023/09/26 12:17:56;;;;;;;12.85;7.10;;;20.40;99.90;;;;;;5071922;28;20127;-78
2023/09/26 12:20:28;;;;;;;10.10;6.70;;;20.40;99.90;;;;;;5072164;28;20526;-77
2023/09/26 12:22:55;;;;;;;12.15;6.50;;;20.30;99.90;;;;;;5072132;28;20060;-77
2023/09/26 12:25:22;;;;;;;9.80;6.70;;;20.30;99.90;;;;;;5072307;28;20511;-77
2023/09/26 12:27:49;;;;;;;10.20;6.85;;;20.40;99.90;;;;;;5073543;28;20112;-78
2023/09/26 12:30:21;;;;;;;11.35;7.10;;;20.30;99.90;;;;;;5073200;28;20104;-76